Time;durP1;ratioP1;P1;durP2;ratioP2;P2;SDS_P1;SDS_P2;PMS_P1;PMS_P2;Temp;Humidity;BMP_temperature;BMP_pressure;BME280_temperature;BME280_humidity;BME280_pressure;Samples;Min_cycle;Max_cycle;Signal;HPM_P1;HPM_P2
2022/01/01 00:02:04;;;;;;;3.15;1.40;;;;;;;6.58;100.00;95183.31;4999263;28;20088;-92
2022/01/01 00:04:30;;;;;;;6.25;2.28;;;;;;;6.39;100.00;95181.78;5015592;28;20092;-92
2022/01/01 00:06:55;;;;;;;5.60;2.42;;;;;;;6.35;100.00;95173.63;5018770;28;20029;-92
2022/01/01 00:09:21;;;;;;;7.15;2.40;;;;;;;6.63;100.00;95169.63;5003077;28;20386;-92
2022/01/01 00:11:47;;;;;;;3.10;2.10;;;;;;;6.53;100.00;95166.78;5018476;28;20495;-92
2022/01/01 00:14:12;;;;;;;6.68;1.80;;;;;;;6.56;100.00;95163.75;5002912;28;20038;-92
2022/01/01 00:16:38;;;;;;;4.55;2.15;;;;;;;6.44;100.00;95171.50;5018743;28;20030;-92
2022/01/01 00:19:04;;;;;;;5.47;1.75;;;;;;;6.31;100.00;95168.06;5002676;28;20462;-92
2022/01/01 00:21:29;;;;;;;4.13;1.60;;;;;;;6.25;100.00;95171.53;5001897;28;20025;-92
2022/01/01 00:23:55;;;;;;;4.00;1.80;;;;;;;6.26;100.00;95172.34;5018585;28;20033;-91
2022/01/01 00:26:21;;;;;;;5.82;1.77;;;;;;;6.49;100.00;95164.63;5002475;28;20029;-91
2022/01/01 00:28:46;;;;;;;3.88;1.77;;;;;;;6.13;100.00;95160.28;5002630;28;20331;-91
2022/01/01 00:31:12;;;;;;;3.15;1.90;;;;;;;6.46;100.00;95154.66;5018180;28;20026;-92
2022/01/01 00:33:37;;;;;;;5.05;1.95;;;;;;;6.17;100.00;95158.81;5001974;28;20442;-92
2022/01/01 00:36:03;;;;;;;2.65;1.65;;;;;;;6.46;100.00;95156.47;5018347;28;20033;-91
2022/01/01 00:38:29;;;;;;;5.18;2.25;;;;;;;6.43;100.00;95156.91;5018708;28;20037;-92
2022/01/01 00:40:54;;;;;;;5.15;1.98;;;;;;;6.58;100.00;95156.50;5002089;28;20041;-92
2022/01/01 00:43:20;;;;;;;3.20;1.50;;;;;;;6.31;100.00;95154.25;5018354;28;20033;-92
2022/01/01 00:45:45;;;;;;;2.92;1.60;;;;;;;6.12;100.00;95154.28;5018385;28;20080;-91
2022/01/01 00:48:11;;;;;;;2.50;1.58;;;;;;;6.05;100.00;95148.38;5002035;28;20350;-91
2022/01/01 00:50:36;;;;;;;3.47;1.90;;;;;;;6.04;100.00;95163.19;5001868;28;20034;-92
2022/01/01 00:53:02;;;;;;;3.05;1.80;;;;;;;6.13;100.00;95161.09;5001992;28;20058;-92
2022/01/01 00:55:28;;;;;;;3.67;1.40;;;;;;;6.05;100.00;95158.78;5001924;28;20098;-91
2022/01/01 00:57:54;;;;;;;2.63;1.38;;;;;;;6.16;100.00;95154.63;5018133;28;20055;-92
2022/01/01 01:00:19;;;;;;;4.60;1.58;;;;;;;6.21;100.00;95163.38;5001237;28;20124;-92
2022/01/01 01:02:45;;;;;;;4.05;1.60;;;;;;;6.38;100.00;95151.56;5001794;28;20037;-93
2022/01/01 01:05:10;;;;;;;2.80;1.63;;;;;;;6.54;100.00;95152.75;5018106;28;20348;-92
2022/01/01 01:07:36;;;;;;;2.75;1.40;;;;;;;6.84;100.00;95146.72;5001608;28;20034;-92
2022/01/01 01:10:04;;;;;;;3.95;1.50;;;;;;;6.92;100.00;95146.38;5017976;28;20041;-92
2022/01/01 01:12:39;;;;;;;2.50;1.20;;;;;;;6.81;100.00;95152.34;5001469;28;20040;-92
2022/01/01 01:15:05;;;;;;;3.13;1.35;;;;;;;6.56;100.00;95148.91;5003048;28;20061;-92
2022/01/01 01:17:31;;;;;;;2.85;1.70;;;;;;;6.59;100.00;95155.50;5001095;28;20030;-92
2022/01/01 01:19:57;;;;;;;4.78;1.73;;;;;;;6.64;100.00;95159.00;5001515;28;20084;-91
2022/01/01 01:22:22;;;;;;;2.50;1.30;;;;;;;6.56;100.00;95161.91;5000874;28;20032;-92
2022/01/01 01:24:48;;;;;;;4.90;1.50;;;;;;;6.57;100.00;95160.91;5001357;28;20048;-91
2022/01/01 01:27:13;;;;;;;3.97;1.65;;;;;;;6.60;100.00;95159.69;5001259;28;20340;-92
2022/01/01 01:29:42;;;;;;;4.35;1.45;;;;;;;6.91;100.00;95157.81;5001374;28;20378;-92
2022/01/01 01:32:08;;;;;;;2.88;1.33;;;;;;;6.60;100.00;95162.28;5001407;28;20030;-92
2022/01/01 01:34:33;;;;;;;3.33;1.50;;;;;;;6.60;100.00;95160.47;5017577;28;20435;-92
2022/01/01 01:36:59;;;;;;;2.78;1.50;;;;;;;6.48;100.00;95162.25;5001367;28;20386;-92
2022/01/01 01:39:32;;;;;;;3.55;1.73;;;;;;;6.65;100.00;95152.78;5018381;28;20037;-92
2022/01/01 01:41:57;;;;;;;2.80;1.33;;;;;;;6.95;100.00;95150.34;5000962;28;20116;-91
2022/01/01 01:44:32;;;;;;;4.07;1.80;;;;;;;6.87;100.00;95154.84;5000595;28;20698;-92
2022/01/01 01:47:00;;;;;;;3.53;1.55;;;;;;;6.68;100.00;95161.16;5001153;28;20034;-92
2022/01/01 01:49:25;;;;;;;4.85;1.65;;;;;;;6.86;100.00;95153.28;5001173;28;20030;-92
2022/01/01 01:51:51;;;;;;;3.58;1.52;;;;;;;6.87;100.00;95159.28;5000547;28;20030;-91
2022/01/01 01:54:17;;;;;;;3.42;1.70;;;;;;;6.91;100.00;95161.22;5001032;28;20036;-91
2022/01/01 01:56:46;;;;;;;2.72;1.58;;;;;;;6.81;100.00;95160.16;5000985;28;20075;-92
2022/01/01 01:59:13;;;;;;;4.28;1.85;;;;;;;6.76;100.00;95169.44;5000725;28;20030;-92
2022/01/01 02:01:38;;;;;;;2.70;1.58;;;;;;;6.50;100.00;95170.63;5000217;28;20355;-92
2022/01/01 02:04:04;;;;;;;3.35;1.50;;;;;;;6.41;100.00;95175.34;5000549;28;20025;-92
2022/01/01 02:06:30;;;;;;;3.88;1.58;;;;;;;6.28;100.00;95175.53;5017007;28;20034;-92
2022/01/01 02:08:55;;;;;;;3.75;1.70;;;;;;;6.29;100.00;95161.50;5016637;28;20032;-92
2022/01/01 02:11:22;;;;;;;4.45;2.00;;;;;;;6.48;100.00;95160.44;5016477;28;20116;-93
2022/01/01 02:18:47;;;;;;;3.25;1.70;;;;;;;6.98;97.95;95149.91;5016745;28;20125;-92
2022/01/01 02:21:13;;;;;;;5.88;1.90;;;;;;;7.11;92.14;95152.28;5016370;28;20427;-92
2022/01/01 02:23:42;;;;;;;4.05;1.80;;;;;;;7.05;95.12;95155.81;5000509;28;20021;-92
2022/01/01 02:26:12;;;;;;;3.85;1.67;;;;;;;6.91;97.07;95147.41;5016462;28;20489;-91
2022/01/01 02:28:47;;;;;;;6.55;2.00;;;;;;;6.87;100.00;95144.44;5000107;28;20036;-92
2022/01/01 02:31:14;;;;;;;2.33;1.50;;;;;;;6.85;95.30;95151.69;4999749;28;20133;-92
2022/01/01 02:33:41;;;;;;;3.92;1.63;;;;;;;7.22;89.90;95148.09;5000463;28;20084;-91
2022/01/01 02:36:07;;;;;;;3.42;1.58;;;;;;;7.20;92.60;95145.75;5016219;28;20035;-92
2022/01/01 02:38:34;;;;;;;3.47;1.75;;;;;;;7.22;92.61;95143.69;5016565;28;20034;-92
2022/01/01 02:40:59;;;;;;;2.50;1.40;;;;;;;7.12;92.99;95140.06;4999788;28;20065;-91
2022/01/01 02:43:25;;;;;;;3.95;1.63;;;;;;;6.73;100.00;95143.06;4999938;28;20089;-92
2022/01/01 02:45:51;;;;;;;3.80;1.58;;;;;;;6.61;100.00;95130.00;5016097;28;20037;-92
2022/01/01 02:48:17;;;;;;;4.97;1.65;;;;;;;6.64;97.21;95151.19;4999796;28;20128;-92
2022/01/01 02:50:42;;;;;;;3.30;1.50;;;;;;;6.93;94.70;95138.34;4999600;28;20133;-92
2022/01/01 02:53:15;;;;;;;3.50;1.48;;;;;;;7.21;94.51;95134.28;5015937;28;20068;-92
2022/01/01 02:55:42;;;;;;;2.63;1.40;;;;;;;7.24;92.08;95138.25;5015997;28;20113;-92
2022/01/01 02:58:09;;;;;;;2.35;1.42;;;;;;;7.10;94.01;95132.47;4999381;28;20037;-92
2022/01/01 03:00:35;;;;;;;3.83;1.80;;;;;;;6.79;98.60;95132.53;4999868;28;20096;-92
2022/01/01 03:03:00;;;;;;;2.45;1.38;;;;;;;6.50;100.00;95139.38;5015904;28;20045;-92
2022/01/01 03:05:27;;;;;;;2.33;1.42;;;;;;;6.37;100.00;95140.34;4999551;28;20034;-92
2022/01/01 03:07:52;;;;;;;5.07;2.00;;;;;;;6.46;100.00;95143.47;5016069;28;20036;-92
2022/01/01 03:10:18;;;;;;;3.15;1.60;;;;;;;6.45;100.00;95139.25;5015746;28;20034;-91
2022/01/01 03:12:43;;;;;;;2.92;1.75;;;;;;;6.39;100.00;95134.94;5015395;28;20033;-92
2022/01/01 03:15:09;;;;;;;3.53;1.63;;;;;;;6.47;100.00;95139.84;5007898;28;20031;-92
2022/01/01 03:17:37;;;;;;;2.17;1.30;;;;;;;6.75;100.00;95135.84;5049628;28;20350;-90
2022/01/01 03:20:04;;;;;;;2.42;1.60;;;;;;;6.83;100.00;95127.69;5039010;28;20135;-91
2022/01/01 03:22:29;;;;;;;2.67;1.60;;;;;;;7.04;98.87;95130.78;5051983;28;20033;-91
2022/01/01 03:24:55;;;;;;;3.17;1.63;;;;;;;7.11;99.63;95115.81;5051448;28;20414;-91
2022/01/01 03:27:20;;;;;;;3.30;1.45;;;;;;;6.89;100.00;95115.56;5029175;28;20510;-91
2022/01/01 03:29:47;;;;;;;3.80;2.00;;;;;;;6.76;100.00;95113.97;5043174;28;20029;-91
2022/01/01 03:32:15;;;;;;;3.63;1.60;;;;;;;6.72;100.00;95115.44;5038940;28;20127;-92
2022/01/01 03:34:44;;;;;;;2.80;1.40;;;;;;;6.65;100.00;95113.72;5039237;28;20029;-91
2022/01/01 03:37:09;;;;;;;3.47;1.60;;;;;;;6.71;100.00;95113.84;5039184;28;20087;-91
2022/01/01 03:39:35;;;;;;;2.38;1.27;;;;;;;6.80;100.00;95112.50;5038728;28;20431;-91
2022/01/01 03:42:01;;;;;;;2.55;1.20;;;;;;;6.98;100.00;95108.22;5015906;28;20022;-91
2022/01/01 03:44:26;;;;;;;4.15;1.48;;;;;;;6.99;100.00;95109.81;5039090;28;20026;-92
2022/01/01 03:46:57;;;;;;;2.53;1.30;;;;;;;7.13;100.00;95111.16;5022776;28;20021;-91
2022/01/01 03:49:23;;;;;;;2.55;1.40;;;;;;;7.13;100.00;95110.38;5039127;28;20123;-92
2022/01/01 03:51:48;;;;;;;2.08;1.05;;;;;;;7.14;100.00;95104.16;5022561;28;20116;-91
2022/01/01 03:54:15;;;;;;;2.55;1.10;;;;;;;6.99;100.00;95104.59;5039152;28;20450;-92
2022/01/01 03:56:41;;;;;;;2.63;1.30;;;;;;;6.92;100.00;95100.28;5039365;28;20029;-91
2022/01/01 03:59:06;;;;;;;2.95;1.40;;;;;;;6.84;100.00;95111.03;5022599;28;20032;-91
2022/01/01 04:01:32;;;;;;;2.80;1.30;;;;;;;6.42;100.00;95113.66;5022420;28;20496;-91
2022/01/01 04:03:57;;;;;;;2.63;1.30;;;;;;;6.22;100.00;95117.34;5022568;28;20127;-91
2022/01/01 04:06:23;;;;;;;3.72;1.83;;;;;;;6.05;100.00;95115.34;5038695;28;20122;-91
2022/01/01 04:08:48;;;;;;;4.38;2.05;;;;;;;6.02;100.00;95120.97;5022075;28;20052;-91
2022/01/01 04:11:13;;;;;;;3.90;1.75;;;;;;;6.03;100.00;95112.19;5021985;28;20072;-91
2022/01/01 04:13:39;;;;;;;6.82;2.85;;;;;;;6.31;100.00;95115.22;5022228;28;20025;-91
2022/01/01 04:16:06;;;;;;;6.70;2.83;;;;;;;6.21;100.00;95115.75;5022202;28;20099;-91
2022/01/01 04:18:38;;;;;;;5.82;2.50;;;;;;;6.21;100.00;95108.72;5038530;28;20120;-91
2022/01/01 04:21:11;;;;;;;4.03;2.10;;;;;;;6.00;100.00;95115.16;5038442;28;20104;-91
2022/01/01 04:23:37;;;;;;;4.00;2.17;;;;;;;5.81;100.00;95117.03;5038667;28;20423;-92
2022/01/01 04:26:03;;;;;;;7.93;2.60;;;;;;;5.71;100.00;95108.94;5021761;28;20021;-91
2022/01/01 04:28:28;;;;;;;5.05;2.42;;;;;;;6.27;100.00;95106.28;5038643;28;20533;-91
2022/01/01 04:30:54;;;;;;;5.70;2.47;;;;;;;6.32;100.00;95107.19;5021936;28;20022;-91
2022/01/01 04:33:20;;;;;;;6.03;2.53;;;;;;;6.32;100.00;95106.41;5038163;28;20159;-91
2022/01/01 04:35:45;;;;;;;5.15;2.33;;;;;;;6.62;100.00;95095.16;5021959;28;20021;-92
2022/01/01 04:38:25;;;;;;;6.47;2.83;;;;;;;6.68;100.00;95098.66;5021898;28;20029;-91
2022/01/01 04:40:51;;;;;;;3.10;1.40;;;;;;;7.19;98.35;95099.03;5023851;28;20037;-92
2022/01/01 04:43:17;;;;;;;2.15;1.30;;;;;;;7.34;93.50;95096.00;5021788;28;20353;-91
2022/01/01 04:45:42;;;;;;;2.65;1.20;;;;;;;7.44;92.35;95098.00;5039386;28;20068;-91
2022/01/01 04:48:08;;;;;;;5.80;1.70;;;;;;;7.19;96.35;95105.06;5021657;28;20056;-91
2022/01/01 04:50:33;;;;;;;3.38;1.67;;;;;;;7.03;96.99;95100.50;5037816;28;20147;-91
2022/01/01 04:52:59;;;;;;;3.53;1.55;;;;;;;6.97;99.83;95098.81;5036812;28;20331;-91
2022/01/01 04:55:25;;;;;;;3.47;1.60;;;;;;;7.08;98.73;95087.59;5021546;28;20033;-91
2022/01/01 04:57:50;;;;;;;2.15;1.38;;;;;;;7.13;100.00;95100.75;5021561;28;20033;-91
2022/01/01 05:00:16;;;;;;;2.28;1.20;;;;;;;7.08;100.00;95095.44;5020989;28;20033;-91
2022/01/01 05:02:42;;;;;;;2.13;1.30;;;;;;;7.01;99.55;95094.72;5020941;28;20025;-92
2022/01/01 05:05:08;;;;;;;2.47;1.30;;;;;;;6.98;99.67;95098.59;5021429;28;20125;-91
2022/01/01 05:07:34;;;;;;;3.83;1.20;;;;;;;7.10;98.27;95085.56;5037852;28;20112;-91
2022/01/01 05:09:59;;;;;;;2.35;1.10;;;;;;;7.03;98.12;95095.28;5021647;28;20339;-91
2022/01/01 05:12:25;;;;;;;2.88;1.08;;;;;;;6.97;97.20;95101.41;5021125;28;20324;-91
2022/01/01 05:14:50;;;;;;;5.32;1.10;;;;;;;6.85;99.87;95094.38;5038555;28;20033;-92
2022/01/01 05:17:17;;;;;;;2.55;1.33;;;;;;;6.75;100.00;95100.16;5037410;28;20037;-91
2022/01/01 05:19:46;;;;;;;3.33;1.23;;;;;;;6.71;100.00;95095.59;5021224;28;20339;-91
2022/01/01 05:22:11;;;;;;;1.85;1.10;;;;;;;6.54;100.00;95104.06;5038459;28;20159;-91
2022/01/01 05:24:37;;;;;;;2.20;1.20;;;;;;;6.59;100.00;95106.00;5020986;28;20120;-91
2022/01/01 05:27:03;;;;;;;4.68;1.70;;;;;;;6.63;100.00;95107.94;5037426;28;20338;-92
2022/01/01 05:29:28;;;;;;;1.98;1.13;;;;;;;6.55;100.00;95110.88;5020799;28;20029;-91
2022/01/01 05:31:54;;;;;;;2.55;1.48;;;;;;;6.62;100.00;95097.75;5036891;28;20036;-92
2022/01/01 05:34:19;;;;;;;2.72;1.35;;;;;;;6.89;100.00;95098.16;5020774;28;20026;-91
2022/01/01 05:36:45;;;;;;;1.50;1.10;;;;;;;6.92;100.00;95100.28;5020741;28;20106;-91
2022/01/01 05:39:10;;;;;;;2.55;1.25;;;;;;;7.06;100.00;95103.47;5049490;28;20171;-91
2022/01/01 05:41:36;;;;;;;1.83;1.05;;;;;;;7.13;100.00;95105.94;5033441;28;20044;-92
2022/01/01 05:44:01;;;;;;;5.95;1.17;;;;;;;7.19;98.88;95112.88;5051698;28;20048;-91
2022/01/01 05:46:29;;;;;;;2.47;1.58;;;;;;;7.27;95.38;95114.34;5020118;28;20506;-91
2022/01/01 05:48:55;;;;;;;1.65;1.10;;;;;;;6.99;100.00;95115.00;5020866;28;20081;-92
2022/01/01 05:51:20;;;;;;;1.85;1.30;;;;;;;6.83;100.00;95114.66;5036567;28;20381;-91
2022/01/01 05:53:46;;;;;;;2.47;1.30;;;;;;;6.92;99.33;95118.53;5036593;28;20351;-92
2022/01/01 05:56:11;;;;;;;1.48;1.10;;;;;;;7.03;96.25;95114.34;5036677;28;20076;-92
2022/01/01 05:58:37;;;;;;;2.55;1.25;;;;;;;7.21;92.75;95117.84;5020356;28;20116;-91
2022/01/01 06:01:03;;;;;;;2.08;1.10;;;;;;;7.31;90.50;95123.28;5036378;28;20414;-91
2022/01/01 06:03:28;;;;;;;3.03;1.10;;;;;;;7.25;87.79;95126.81;5019976;28;20045;-91
2022/01/01 06:05:54;;;;;;;3.22;1.33;;;;;;;6.93;93.86;95122.72;5036677;28;20029;-91
2022/01/01 06:08:19;;;;;;;3.75;1.30;;;;;;;6.91;92.27;95129.97;5036506;28;20044;-91
2022/01/01 06:10:45;;;;;;;2.22;1.00;;;;;;;6.65;95.91;95138.97;5020098;28;20021;-91
2022/01/01 06:13:10;;;;;;;2.50;1.05;;;;;;;6.77;94.34;95141.59;5020051;28;20037;-91
2022/01/01 06:15:36;;;;;;;1.80;1.00;;;;;;;6.91;92.95;95137.78;5020693;28;20100;-91
2022/01/01 06:18:02;;;;;;;1.40;0.80;;;;;;;6.82;92.76;95141.72;5020348;28;20079;-92
2022/01/01 06:20:27;;;;;;;2.08;0.80;;;;;;;6.78;89.98;95148.41;5036171;28;20021;-91
2022/01/01 06:22:53;;;;;;;1.92;0.90;;;;;;;6.56;93.04;95159.31;5020236;28;20414;-91
2022/01/01 06:25:18;;;;;;;1.65;1.00;;;;;;;6.43;93.45;95154.28;5020230;28;20083;-91
2022/01/01 06:27:44;;;;;;;1.88;1.20;;;;;;;6.47;94.90;95158.84;5036407;28;20025;-92
2022/01/01 06:30:10;;;;;;;3.38;1.15;;;;;;;6.53;90.29;95156.34;5018621;28;20021;-92
2022/01/01 06:32:35;;;;;;;2.20;0.75;;;;;;;6.26;95.85;95160.13;5035851;28;20355;-92
2022/01/01 06:35:01;;;;;;;2.08;1.20;;;;;;;6.33;93.48;95162.63;5003397;28;20033;-92
2022/01/01 06:37:26;;;;;;;2.00;1.00;;;;;;;6.49;89.80;95166.44;5036034;28;20025;-91
2022/01/01 06:39:52;;;;;;;3.10;0.98;;;;;;;6.64;86.21;95171.22;5036232;28;20401;-91
2022/01/01 06:42:17;;;;;;;1.98;1.10;;;;;;;6.64;86.03;95181.63;5036143;28;20021;-91
2022/01/01 06:44:43;;;;;;;1.55;1.00;;;;;;;6.55;87.14;95173.34;5036028;28;20025;-92
2022/01/01 06:47:09;;;;;;;2.38;0.63;;;;;;;6.43;81.88;95173.31;5035766;28;20108;-92
2022/01/01 06:49:48;;;;;;;1.63;1.10;;;;;;;6.73;80.70;95174.31;5035552;28;20036;-91
2022/01/01 06:52:14;;;;;;;1.20;0.60;;;;;;;6.99;76.22;95178.34;5036029;28;20036;-91
2022/01/01 06:54:39;;;;;;;1.02;0.73;;;;;;;7.05;74.29;95171.44;5018932;28;20029;-91
2022/01/01 06:57:05;;;;;;;2.40;1.02;;;;;;;6.89;75.25;95183.31;5019300;28;20048;-91
2022/01/01 06:59:30;;;;;;;1.75;0.98;;;;;;;6.85;75.96;95180.34;5019673;28;20048;-91
2022/01/01 07:01:56;;;;;;;2.28;1.00;;;;;;;6.77;75.60;95183.28;5019208;28;20028;-91
2022/01/01 07:04:21;;;;;;;1.92;1.08;;;;;;;6.79;67.95;95178.63;5019444;28;20427;-91
2022/01/01 07:06:48;;;;;;;1.95;0.90;;;;;;;6.73;69.14;95190.75;5019327;28;20047;-91
2022/01/01 07:09:32;;;;;;;2.88;0.88;;;;;;;6.83;67.46;95192.03;5019824;28;20446;-91
2022/01/01 07:11:58;;;;;;;1.13;0.70;;;;;;;6.88;67.14;95192.13;5035348;28;20036;-92
2022/01/01 07:14:23;;;;;;;3.58;1.17;;;;;;;7.06;67.45;95196.47;5018768;28;20120;-92
2022/01/01 07:16:49;;;;;;;1.83;0.80;;;;;;;7.22;64.33;95192.41;5035339;28;20052;-91
2022/01/01 07:19:14;;;;;;;1.48;0.90;;;;;;;7.36;64.29;95190.41;5019176;28;20033;-90
2022/01/01 07:21:40;;;;;;;2.85;1.02;;;;;;;7.21;65.58;95196.03;5018939;28;20033;-90
2022/01/01 07:24:06;;;;;;;2.90;1.00;;;;;;;7.07;64.64;95196.25;5018951;28;20029;-91
2022/01/01 07:26:31;;;;;;;1.38;0.95;;;;;;;7.11;63.70;95201.81;5019283;28;20028;-91
2022/01/01 07:29:05;;;;;;;3.20;0.90;;;;;;;7.28;66.41;95206.34;5019040;28;20021;-92
2022/01/01 07:31:30;;;;;;;;;;;;;;;7.30;65.35;95206.94;5019679;28;20492;-91
2022/01/01 07:33:55;;;;;;;1.48;0.77;;;;;;;7.32;65.83;95204.91;5013514;28;19917;-92
2022/01/01 07:36:21;;;;;;;1.52;0.70;;;;;;;7.26;64.03;95208.41;4983087;28;20329;-91
2022/01/01 07:38:46;;;;;;;1.65;0.80;;;;;;;7.52;61.86;95211.59;4999602;28;20026;-91
2022/01/01 07:41:12;;;;;;;1.48;0.82;;;;;;;7.59;64.50;95207.84;5015529;28;20041;-91
2022/01/01 07:43:38;;;;;;;1.33;0.73;;;;;;;7.83;62.07;95222.69;5015259;28;20022;-91
2022/01/01 07:46:04;;;;;;;1.23;0.70;;;;;;;7.79;63.80;95224.97;5015392;28;20060;-91
2022/01/01 07:48:29;;;;;;;1.15;0.60;;;;;;;7.81;63.58;95224.75;5015361;28;20088;-92
2022/01/01 07:50:58;;;;;;;6.35;0.90;;;;;;;7.81;64.33;95225.53;4999025;28;20431;-91
2022/01/01 07:53:23;;;;;;;1.08;0.57;;;;;;;7.86;64.21;95219.63;4999106;28;20026;-91
2022/01/01 07:55:49;;;;;;;0.90;0.60;;;;;;;7.91;61.06;95219.75;5015305;28;20394;-92
2022/01/01 07:58:14;;;;;;;3.95;1.08;;;;;;;8.21;70.86;95224.78;5015189;28;20080;-91
2022/01/01 08:00:40;;;;;;;1.83;1.00;;;;;;;8.01;73.47;95221.78;4999073;28;20358;-91
2022/01/01 08:03:05;;;;;;;1.20;0.70;;;;;;;7.93;74.11;95223.69;5015142;28;20038;-91
2022/01/01 08:05:31;;;;;;;2.35;1.15;;;;;;;7.90;79.04;95223.38;4998968;28;20083;-90
2022/01/01 08:07:56;;;;;;;2.97;1.17;;;;;;;7.89;87.24;95235.63;4999045;28;20030;-91
2022/01/01 08:10:23;;;;;;;3.55;1.40;;;;;;;7.90;85.88;95234.59;5015070;28;20351;-90
2022/01/01 08:12:49;;;;;;;3.03;1.23;;;;;;;7.89;86.53;95238.25;4998763;28;20034;-90
2022/01/01 08:15:16;;;;;;;3.80;1.02;;;;;;;8.00;83.98;95228.03;4999299;28;20351;-91
2022/01/01 08:17:42;;;;;;;1.88;0.85;;;;;;;8.16;78.38;95231.72;4999348;28;20092;-91
2022/01/01 08:20:08;;;;;;;1.20;0.85;;;;;;;8.25;79.85;95230.34;5031709;28;20403;-91
2022/01/01 08:22:34;;;;;;;0.90;0.80;;;;;;;8.32;74.03;95233.66;5015256;28;20053;-90
2022/01/01 08:25:01;;;;;;;3.08;1.00;;;;;;;8.44;70.60;95230.19;5015307;28;20180;-90
2022/01/01 08:27:26;;;;;;;2.85;1.10;;;;;;;8.47;74.21;95235.75;5015815;28;20049;-90
2022/01/01 08:29:52;;;;;;;3.28;0.90;;;;;;;8.67;72.88;95236.41;5002367;28;20061;-91
2022/01/01 08:32:17;;;;;;;3.63;1.08;;;;;;;8.60;75.38;95232.09;5018124;28;20034;-92
2022/01/01 08:34:43;;;;;;;1.33;0.98;;;;;;;8.59;72.95;95227.09;5001653;28;20121;-92
2022/01/01 08:37:15;;;;;;;5.15;1.30;;;;;;;8.68;75.33;95235.38;5002212;28;20455;-91
2022/01/01 08:39:41;;;;;;;2.00;1.30;;;;;;;8.81;73.25;95236.88;5018104;28;20029;-92
2022/01/01 08:42:09;;;;;;;1.85;1.00;;;;;;;8.94;71.88;95230.59;5034861;28;20022;-91
2022/01/01 08:44:36;;;;;;;1.52;0.93;;;;;;;8.97;70.74;95232.75;5035694;28;20036;-91
2022/01/01 08:47:02;;;;;;;2.47;1.08;;;;;;;9.05;74.62;95227.13;5058297;28;20346;-91
2022/01/01 08:49:27;;;;;;;1.42;0.90;;;;;;;9.21;73.71;95235.22;5037277;28;20026;-92
2022/01/01 08:51:55;;;;;;;2.25;1.02;;;;;;;9.21;78.39;95225.56;5009879;28;20052;-91
2022/01/01 08:54:21;;;;;;;1.92;1.00;;;;;;;9.14;82.79;95236.16;5033270;28;20033;-92
2022/01/01 08:56:46;;;;;;;2.25;1.02;;;;;;;9.13;82.10;95234.59;5040158;28;20032;-92
2022/01/01 08:59:12;;;;;;;2.92;1.25;;;;;;;9.17;80.82;95229.69;5037794;28;20029;-91
2022/01/01 09:01:38;;;;;;;1.88;1.08;;;;;;;9.26;80.93;95230.06;5037908;28;20026;-92
2022/01/01 09:04:06;;;;;;;1.40;1.10;;;;;;;9.31;80.12;95230.97;5018111;28;20033;-92
2022/01/01 09:06:32;;;;;;;2.13;1.30;;;;;;;9.39;81.25;95235.00;5002191;28;20026;-91
2022/01/01 09:08:57;;;;;;;1.92;1.08;;;;;;;9.35;80.74;95236.50;5032880;28;20120;-91
2022/01/01 09:11:23;;;;;;;2.35;1.17;;;;;;;9.36;77.83;95238.09;5018756;28;20022;-91
2022/01/01 09:13:49;;;;;;;1.95;1.00;;;;;;;9.42;75.39;95233.75;5017568;28;20030;-91
2022/01/01 09:16:17;;;;;;;1.42;0.95;;;;;;;9.55;77.98;95241.28;5017668;28;20076;-92
2022/01/01 09:18:44;;;;;;;2.42;1.25;;;;;;;9.57;79.92;95248.84;5018753;28;20025;-91
2022/01/01 09:21:09;;;;;;;4.32;1.00;;;;;;;9.62;83.46;95251.56;5001112;28;20057;-92
2022/01/01 09:23:35;;;;;;;1.25;1.05;;;;;;;9.68;82.77;95250.59;5017488;28;20414;-91
2022/01/01 09:26:01;;;;;;;2.10;1.23;;;;;;;9.75;81.52;95259.09;5017240;28;20059;-91
2022/01/01 09:28:31;;;;;;;1.95;0.90;;;;;;;9.81;78.28;95253.94;5037231;28;20441;-91
2022/01/01 09:30:57;;;;;;;2.55;1.10;;;;;;;9.87;82.05;95258.19;5020680;28;20025;-91
2022/01/01 09:33:25;;;;;;;3.30;1.40;;;;;;;9.97;77.91;95255.72;5020783;28;20032;-92
2022/01/01 09:35:55;;;;;;;2.65;1.17;;;;;;;9.98;76.67;95265.16;5037089;28;20477;-92
2022/01/01 09:38:21;;;;;;;2.92;1.17;;;;;;;10.06;77.16;95261.34;5037972;28;20037;-90
2022/01/01 09:40:48;;;;;;;2.60;1.25;;;;;;;10.14;77.94;95266.16;5020552;28;20083;-91
2022/01/01 09:43:14;;;;;;;1.95;1.23;;;;;;;10.22;78.38;95272.00;5038013;28;20021;-91
2022/01/01 09:45:43;;;;;;;5.30;1.30;;;;;;;10.33;78.75;95274.53;5036858;28;20083;-91
2022/01/01 09:48:09;;;;;;;1.90;1.08;;;;;;;10.34;77.38;95267.47;5036765;28;20029;-91
2022/01/01 09:50:35;;;;;;;2.42;1.15;;;;;;;10.38;75.33;95267.75;5036679;28;20036;-91
2022/01/01 09:53:01;;;;;;;1.90;1.10;;;;;;;10.48;80.53;95267.13;5020765;28;20168;-91
2022/01/01 09:55:27;;;;;;;1.80;0.90;;;;;;;10.55;75.51;95280.84;5020071;28;20049;-92
2022/01/01 09:57:52;;;;;;;3.03;1.40;;;;;;;10.96;72.60;95281.28;5019877;28;20453;-91
2022/01/01 10:00:18;;;;;;;2.45;1.00;;;;;;;10.75;73.88;95275.81;5036529;28;20037;-91
2022/01/01 10:02:43;;;;;;;1.85;1.00;;;;;;;10.79;70.82;95272.72;5020128;28;20025;-92
2022/01/01 10:05:09;;;;;;;1.33;0.88;;;;;;;10.80;69.63;95264.59;5036294;28;20029;-91
2022/01/01 10:07:34;;;;;;;2.30;1.10;;;;;;;10.80;70.78;95276.91;5036199;28;20029;-92
2022/01/01 10:10:22;;;;;;;3.33;1.38;;;;;;;10.76;72.90;95271.38;5036249;28;20195;-91
2022/01/01 10:12:48;;;;;;;2.22;1.25;;;;;;;10.80;75.28;95269.84;5036371;28;20025;-91
2022/01/01 10:15:14;;;;;;;3.00;1.40;;;;;;;10.83;75.22;95274.59;5036346;28;20036;-90
2022/01/01 10:17:40;;;;;;;3.70;1.17;;;;;;;10.80;76.13;95272.47;5036412;28;20439;-90
2022/01/01 10:20:06;;;;;;;4.22;1.33;;;;;;;10.85;75.40;95274.38;5036776;28;20107;-90
2022/01/01 10:22:31;;;;;;;6.78;1.50;;;;;;;10.94;81.24;95272.88;5036363;28;20033;-90
2022/01/01 10:28:00;;;;;;;5.93;1.58;;;;;;;11.03;79.61;95267.97;5036340;28;20397;-90
2022/01/01 10:30:39;;;;;;;3.40;1.65;;;;;;;11.16;82.25;95272.03;5034860;28;20048;-91
2022/01/01 10:33:10;;;;;;;3.50;1.48;;;;;;;11.28;80.80;95262.19;5022991;28;20518;-90
2022/01/01 10:35:45;;;;;;;3.67;1.70;;;;;;;11.30;75.98;95264.53;5020006;28;20029;-90
2022/01/01 10:38:38;;;;;;;5.65;2.25;;;;;;;11.20;76.14;95280.22;5037100;28;20422;-91
2022/01/01 10:41:08;;;;;;;6.38;2.53;;;;;;;11.26;80.58;95282.63;5031939;28;20087;-90
2022/01/01 10:43:43;;;;;;;4.75;2.30;;;;;;;11.34;77.31;95277.97;5036034;28;20022;-90
2022/01/01 10:46:16;;;;;;;9.15;2.63;;;;;;;11.18;78.57;95281.22;5036926;28;20032;-90
2022/01/01 10:49:00;;;;;;;21.55;9.32;;;;;;;11.08;80.84;95281.16;5019832;28;20096;-90
2022/01/01 10:51:36;;;;;;;7.63;3.60;;;;;;;11.22;78.18;95278.91;5020765;28;20029;-90
2022/01/01 10:54:02;;;;;;;7.18;3.45;;;;;;;11.26;79.49;95287.88;5035660;28;20398;-90
2022/01/01 10:56:36;;;;;;;8.13;3.38;;;;;;;11.26;79.66;95284.47;5035546;28;20116;-90
2022/01/01 10:59:02;;;;;;;7.00;3.60;;;;;;;11.48;76.20;95273.09;5035669;28;20029;-90
2022/01/01 11:01:27;;;;;;;5.38;3.00;;;;;;;11.48;76.45;95275.72;5035459;28;20029;-90
2022/01/01 11:03:56;;;;;;;11.00;4.63;;;;;;;11.42;76.35;95275.69;5035535;28;20096;-90
2022/01/01 11:06:22;;;;;;;10.70;4.00;;;;;;;11.40;76.17;95271.72;5019103;28;20041;-91
2022/01/01 11:08:48;;;;;;;8.90;4.07;;;;;;;11.45;78.97;95269.91;5035447;28;20079;-90
2022/01/01 11:11:15;;;;;;;7.32;3.63;;;;;;;11.53;76.47;95268.66;5035818;28;20191;-90
2022/01/01 11:13:42;;;;;;;9.30;3.95;;;;;;;11.52;75.85;95261.84;5018940;28;20454;-90
2022/01/01 11:16:08;;;;;;;7.28;3.83;;;;;;;11.61;77.72;95267.41;5019207;28;20061;-90
2022/01/01 11:18:35;;;;;;;6.25;3.13;;;;;;;11.64;77.03;95250.38;5036511;28;20029;-90
2022/01/01 11:21:02;;;;;;;5.45;2.65;;;;;;;11.73;79.40;95257.53;5002967;28;20034;-90
2022/01/01 11:23:28;;;;;;;5.28;2.50;;;;;;;11.86;80.41;95250.25;5034654;28;20394;-91
2022/01/01 11:25:54;;;;;;;5.80;2.67;;;;;;;11.92;74.91;95243.22;5035267;28;20103;-90
2022/01/01 11:28:31;;;;;;;6.50;2.38;;;;;;;11.73;76.06;95249.66;5019052;28;20080;-90
2022/01/01 11:30:56;;;;;;;3.80;1.92;;;;;;;11.79;76.63;95247.84;5018902;28;20377;-91
2022/01/01 11:33:52;;;;;;;3.53;1.70;;;;;;;11.93;77.54;95234.28;5036252;28;20120;-90
2022/01/01 11:36:20;;;;;;;4.78;1.90;;;;;;;11.86;79.83;95232.69;5032726;28;20497;-91
2022/01/01 11:38:46;;;;;;;3.53;2.00;;;;;;;11.96;75.48;95239.84;5035399;28;20029;-90
2022/01/01 11:41:15;;;;;;;6.88;1.95;;;;;;;11.88;75.32;95235.03;5035329;28;20030;-90
2022/01/01 11:43:47;;;;;;;3.78;2.10;;;;;;;11.95;71.61;95243.50;5035482;28;20280;-90